Time;durP1;ratioP1;P1;durP2;ratioP2;P2;SDS_P1;SDS_P2;PMS_P1;PMS_P2;Temp;Humidity;BMP_temperature;BMP_pressure;BME280_temperature;BME280_humidity;BME280_pressure;Samples;Min_cycle;Max_cycle;Signal;HPM_P1;HPM_P2
2021/07/11 00:01:28;;;;;;;6.07;3.85;;;;;;;18.07;81.64;101192.44;4823335;29;20054;-61
2021/07/11 00:03:55;;;;;;;9.30;3.97;;;;;;;18.10;81.23;101186.97;4820802;29;20138;-60
2021/07/11 00:06:23;;;;;;;7.13;4.40;;;;;;;18.44;79.84;101185.63;4823208;29;20054;-60
2021/07/11 00:08:50;;;;;;;7.80;4.28;;;;;;;18.47;79.61;101182.94;4824229;29;20057;-62
2021/07/11 00:11:18;;;;;;;7.75;3.83;;;;;;;18.53;79.49;101191.88;4824821;29;20062;-61
2021/07/11 00:13:45;;;;;;;11.77;4.53;;;;;;;18.53;79.12;101186.28;4825273;29;20047;-60
2021/07/11 00:16:12;;;;;;;8.20;3.97;;;;;;;18.48;79.75;101189.34;4825905;29;20062;-61
2021/07/11 00:18:40;;;;;;;7.50;4.40;;;;;;;18.72;78.77;101181.69;4826013;29;20392;-60
2021/07/11 00:21:07;;;;;;;6.43;4.18;;;;;;;18.77;78.02;101183.38;4824193;29;20055;-60
2021/07/11 00:23:34;;;;;;;9.63;4.05;;;;;;;18.63;78.93;101177.41;4807280;29;20058;-61
2021/07/11 00:26:01;;;;;;;5.50;3.08;;;;;;;18.41;80.05;101184.34;4822582;29;20746;-62
2021/07/11 00:28:29;;;;;;;6.90;2.92;;;;;;;18.55;79.98;101176.38;4823412;29;20521;-60
2021/07/11 00:30:56;;;;;;;8.07;3.55;;;;;;;18.69;79.18;101176.78;4822717;29;20473;-61
2021/07/11 00:33:24;;;;;;;6.70;3.17;;;;;;;18.84;78.75;101172.41;4824897;29;20050;-60
2021/07/11 00:35:51;;;;;;;4.82;2.72;;;;;;;18.74;78.99;101164.56;4823896;29;20062;-60
2021/07/11 00:38:18;;;;;;;5.13;2.35;;;;;;;18.71;78.56;101174.44;4824201;29;20060;-62
2021/07/11 00:40:46;;;;;;;6.00;2.50;;;;;;;18.76;78.24;101170.56;4808292;29;20070;-61
2021/07/11 00:43:13;;;;;;;7.00;2.25;;;;;;;18.65;78.50;101170.31;4824384;29;20066;-62
2021/07/11 00:45:41;;;;;;;4.05;1.95;;;;;;;18.77;78.29;101164.66;4824220;29;20050;-61
2021/07/11 00:48:08;;;;;;;3.85;2.35;;;;;;;18.71;78.31;101168.06;4806579;29;20093;-61
2021/07/11 00:50:37;;;;;;;4.70;2.03;;;;;;;18.72;78.15;101164.09;4823817;29;20057;-60
2021/07/11 00:53:13;;;;;;;4.95;2.10;;;;;;;18.86;77.44;101162.50;4808414;29;20061;-60
2021/07/11 00:55:42;;;;;;;3.93;2.10;;;;;;;18.75;77.47;101160.59;4822407;29;20066;-60
2021/07/11 00:58:11;;;;;;;5.53;2.10;;;;;;;18.50;77.95;101157.13;4807967;29;20050;-62
2021/07/11 01:00:49;;;;;;;4.18;1.90;;;;;;;18.57;78.09;101148.94;4808620;29;20058;-61
2021/07/11 01:03:31;;;;;;;3.80;1.45;;;;;;;18.51;78.12;101149.56;4793073;29;20062;-61
2021/07/11 01:06:06;;;;;;;3.08;1.65;;;;;;;18.46;77.52;101147.81;4807908;29;20565;-62
2021/07/11 01:08:48;;;;;;;3.08;1.58;;;;;;;18.32;78.72;101147.41;4804704;29;20046;-60
2021/07/11 01:11:17;;;;;;;3.03;1.65;;;;;;;18.48;78.25;101136.34;4800967;29;20055;-60
2021/07/11 01:13:46;;;;;;;2.83;1.47;;;;;;;18.54;77.95;101143.25;4804947;29;20074;-61
2021/07/11 01:16:16;;;;;;;3.08;1.50;;;;;;;18.43;78.45;101126.22;4799497;29;20062;-60
2021/07/11 01:18:49;;;;;;;4.03;1.77;;;;;;;18.55;78.08;101134.53;4791560;29;20062;-62
2021/07/11 01:21:18;;;;;;;2.80;1.67;;;;;;;18.57;77.68;101139.75;4792545;29;20058;-61
2021/07/11 01:24:15;;;;;;;3.42;1.52;;;;;;;18.29;79.08;101130.59;4779823;29;20062;-60
2021/07/11 01:26:45;;;;;;;3.80;1.60;;;;;;;18.39;78.86;101130.88;4794041;29;20495;-61
2021/07/11 01:29:14;;;;;;;2.47;1.55;;;;;;;18.26;78.93;101129.31;4809759;29;20070;-60
2021/07/11 01:31:42;;;;;;;2.85;1.60;;;;;;;18.33;79.01;101123.94;4793954;29;20074;-62
2021/07/11 01:34:10;;;;;;;2.92;1.60;;;;;;;18.49;78.41;101124.81;4793168;29;20047;-60
2021/07/11 01:36:39;;;;;;;2.97;1.58;;;;;;;18.49;78.64;101132.38;4773255;29;20186;-62
2021/07/11 01:39:09;;;;;;;4.35;1.55;;;;;;;18.56;77.63;101126.97;4786374;29;20062;-61
2021/07/11 01:41:45;;;;;;;1.80;1.30;;;;;;;18.27;79.12;101116.19;4806913;29;20077;-61
2021/07/11 01:44:13;;;;;;;2.55;1.30;;;;;;;18.13;79.41;101121.34;4821597;29;20051;-62
2021/07/11 01:46:44;;;;;;;2.08;1.30;;;;;;;18.16;79.65;101121.44;4808861;29;20055;-61
2021/07/11 01:49:15;;;;;;;4.40;1.30;;;;;;;18.02;80.32;101125.78;4793747;29;20070;-62
2021/07/11 01:51:48;;;;;;;3.35;1.58;;;;;;;17.95;80.93;101123.63;4787612;29;20067;-61
2021/07/11 01:54:16;;;;;;;5.07;1.40;;;;;;;17.75;81.67;101135.72;4807433;29;20477;-61
2021/07/11 01:56:44;;;;;;;2.42;1.40;;;;;;;17.69;82.11;101124.03;4784227;29;20066;-60
2021/07/11 01:59:17;;;;;;;3.47;1.60;;;;;;;17.70;83.06;101120.06;4796533;29;20518;-61
2021/07/11 02:01:52;;;;;;;2.53;1.50;;;;;;;17.86;82.33;101120.16;4806058;29;20419;-61
2021/07/11 02:04:20;;;;;;;2.65;1.40;;;;;;;17.79;82.36;101111.56;4815552;29;20059;-60
2021/07/11 02:06:50;;;;;;;4.30;1.73;;;;;;;17.66;82.91;101119.13;4792681;29;20051;-61
2021/07/11 02:09:21;;;;;;;2.95;1.50;;;;;;;17.71;82.84;101118.09;4802405;29;20679;-60
2021/07/11 02:11:57;;;;;;;2.70;1.75;;;;;;;17.64;83.49;101120.66;4794056;29;20070;-59
2021/07/11 02:14:38;;;;;;;3.13;1.77;;;;;;;17.68;82.98;101122.38;4821647;29;20062;-59
2021/07/11 02:17:14;;;;;;;3.40;1.60;;;;;;;17.68;83.17;101114.03;4779039;29;20415;-61
2021/07/11 02:20:06;;;;;;;2.55;1.60;;;;;;;17.79;82.54;101114.34;4802147;29;20062;-61
2021/07/11 02:22:47;;;;;;;4.93;1.55;;;;;;;17.75;82.37;101107.84;4797086;29;20073;-60
2021/07/11 02:25:20;;;;;;;2.75;1.38;;;;;;;17.52;83.92;101107.56;4813104;29;20134;-60
2021/07/11 02:27:54;;;;;;;3.10;1.67;;;;;;;17.63;83.74;101107.88;4775207;29;20085;-62
2021/07/11 02:30:25;;;;;;;2.60;1.60;;;;;;;17.48;84.32;101112.22;4793832;29;20054;-61
2021/07/11 02:32:54;;;;;;;3.08;1.80;;;;;;;17.60;84.27;101109.41;4808885;29;20058;-63
2021/07/11 02:35:34;;;;;;;5.47;1.58;;;;;;;17.48;84.54;101115.00;4778040;29;20511;-60
2021/07/11 02:38:01;;;;;;;;;;;;;;;17.46;84.66;101119.25;4798284;29;20233;-61
2021/07/11 02:40:32;;;;;;;5.25;1.60;;;;;;;17.40;85.21;101120.66;4795351;29;19925;-60
2021/07/11 02:43:05;;;;;;;3.20;1.67;;;;;;;17.62;84.71;101123.81;4777952;29;20059;-61
2021/07/11 02:45:36;;;;;;;3.13;1.80;;;;;;;17.65;84.44;101123.09;4798866;29;20062;-61
2021/07/11 02:48:07;;;;;;;2.92;1.80;;;;;;;17.72;84.17;101125.28;4803002;29;20054;-60
2021/07/11 02:50:43;;;;;;;2.95;1.60;;;;;;;17.80;83.39;101119.56;4805322;29;20054;-60
2021/07/11 02:53:12;;;;;;;2.85;1.70;;;;;;;17.65;83.86;101117.53;4787980;29;20061;-62
2021/07/11 02:55:40;;;;;;;3.53;1.60;;;;;;;17.50;84.61;101118.25;4778209;29;20055;-60
2021/07/11 02:58:11;;;;;;;3.45;1.83;;;;;;;17.71;84.04;101120.88;4780744;29;20054;-60
2021/07/11 03:00:41;;;;;;;3.83;1.60;;;;;;;17.57;84.42;101124.03;4777724;29;20063;-66
2021/07/11 03:03:10;;;;;;;;;;;;;;;17.48;84.74;101120.56;4777225;29;20051;-60
2021/07/11 03:05:49;;;;;;;8.87;3.10;;;;;;;17.43;85.39;101123.56;4821694;29;19925;-60
2021/07/11 03:08:17;;;;;;;7.55;3.30;;;;;;;17.15;86.72;101121.81;4823010;29;20303;-62
2021/07/11 03:10:47;;;;;;;;;;;;;;;17.18;87.38;101124.72;4796410;29;20066;-61
2021/07/11 03:13:16;;;;;;;7.32;2.97;;;;;;;17.27;86.26;101130.19;4776305;29;19929;-61
2021/07/11 03:15:47;;;;;;;6.30;2.65;;;;;;;17.22;86.80;101130.41;4790757;29;20633;-60
2021/07/11 03:18:20;;;;;;;5.40;2.28;;;;;;;17.27;86.92;101131.00;4777777;29;20058;-61
2021/07/11 03:20:49;;;;;;;6.93;2.25;;;;;;;17.23;87.00;101127.28;4791499;29;20057;-60
2021/07/11 03:23:18;;;;;;;6.78;2.42;;;;;;;17.34;86.62;101127.63;4791630;29;20062;-61
2021/07/11 03:25:50;;;;;;;5.30;2.33;;;;;;;17.42;86.05;101133.06;4820234;29;20430;-61
2021/07/11 03:28:19;;;;;;;4.50;2.20;;;;;;;17.56;85.29;101127.97;4792076;29;20055;-61
2021/07/11 03:30:49;;;;;;;4.38;2.20;;;;;;;17.52;84.52;101127.06;4811604;29;20046;-61
2021/07/11 03:33:18;;;;;;;4.70;2.67;;;;;;;17.38;85.83;101134.13;4810764;29;20059;-60
2021/07/11 03:35:50;;;;;;;7.28;2.80;;;;;;;17.17;86.32;101130.66;4796045;29;20038;-61
2021/07/11 03:38:22;;;;;;;5.75;2.50;;;;;;;17.40;86.21;101140.16;4793057;29;20050;-61
2021/07/11 03:40:54;;;;;;;5.53;2.35;;;;;;;17.44;85.31;101139.09;4809058;29;20051;-61
2021/07/11 03:43:23;;;;;;;7.78;2.67;;;;;;;17.60;84.58;101151.19;4822039;29;20073;-60
2021/07/11 03:45:54;;;;;;;6.93;2.70;;;;;;;17.58;84.15;101147.94;4808217;29;20050;-61
2021/07/11 03:48:27;;;;;;;5.88;2.53;;;;;;;17.65;83.49;101150.13;4812357;29;20065;-60
2021/07/11 03:50:58;;;;;;;4.75;2.75;;;;;;;17.48;83.82;101148.44;4809595;29;20061;-60
2021/07/11 03:53:30;;;;;;;8.80;2.70;;;;;;;17.22;85.35;101158.25;4795206;29;20073;-59
2021/07/11 03:55:59;;;;;;;5.63;3.08;;;;;;;17.16;86.23;101159.63;4796789;29;20065;-60
2021/07/11 03:58:30;;;;;;;4.07;2.47;;;;;;;17.25;85.50;101157.56;4810881;29;20531;-60
2021/07/11 04:00:58;;;;;;;6.03;2.60;;;;;;;17.40;84.74;101160.44;4804555;29;20054;-60
2021/07/11 04:03:26;;;;;;;7.53;2.65;;;;;;;17.62;83.91;101159.22;4810457;29;20103;-61
2021/07/11 04:05:54;;;;;;;4.57;2.58;;;;;;;17.76;83.26;101162.44;4811750;29;20062;-60
2021/07/11 04:08:22;;;;;;;5.05;2.47;;;;;;;17.75;82.71;101161.63;4795725;29;20514;-62
2021/07/11 04:10:49;;;;;;;4.80;2.60;;;;;;;17.74;82.75;101160.00;4809412;29;20062;-67
2021/07/11 04:13:17;;;;;;;4.55;2.55;;;;;;;17.58;83.56;101161.06;4807334;29;20067;-59
2021/07/11 04:15:51;;;;;;;7.63;2.65;;;;;;;17.60;84.13;101167.09;4819930;29;20062;-60
2021/07/11 04:18:21;;;;;;;5.30;2.60;;;;;;;17.66;83.17;101171.28;4825667;29;20061;-61
2021/07/11 04:20:52;;;;;;;4.70;2.45;;;;;;;17.67;83.50;101167.31;4812438;29;20051;-60
2021/07/11 04:23:22;;;;;;;8.18;2.60;;;;;;;17.57;84.07;101170.59;4809373;29;20632;-61
2021/07/11 04:25:54;;;;;;;6.65;2.95;;;;;;;17.58;84.10;101167.44;4806815;29;20054;-62
2021/07/11 04:28:22;;;;;;;5.13;2.40;;;;;;;17.71;83.24;101171.84;4807025;29;20058;-61
2021/07/11 04:30:51;;;;;;;7.18;2.75;;;;;;;17.59;83.89;101169.06;4779923;29;20058;-60
2021/07/11 04:33:18;;;;;;;4.95;2.60;;;;;;;17.48;84.20;101165.13;4798798;29;20061;-60
2021/07/11 04:35:45;;;;;;;4.82;2.33;;;;;;;17.56;84.02;101172.56;4800698;29;20062;-61
2021/07/11 04:38:13;;;;;;;4.40;2.42;;;;;;;17.61;84.21;101177.06;4818188;29;20063;-61
2021/07/11 04:40:40;;;;;;;6.90;2.63;;;;;;;17.74;83.61;101170.34;4808796;29;20059;-60
2021/07/11 04:43:08;;;;;;;3.70;2.10;;;;;;;17.78;82.99;101169.28;4787152;29;20062;-60
2021/07/11 04:45:35;;;;;;;4.47;2.53;;;;;;;17.78;83.11;101177.63;4823126;29;20534;-61
2021/07/11 04:48:05;;;;;;;4.55;2.50;;;;;;;17.84;83.10;101172.63;4823467;29;20816;-60
2021/07/11 04:50:32;;;;;;;5.22;2.20;;;;;;;17.90;82.81;101180.38;4823636;29;20055;-61
2021/07/11 04:53:00;;;;;;;3.50;1.83;;;;;;;17.90;82.58;101174.81;4817505;29;20586;-62
2021/07/11 04:55:27;;;;;;;2.83;1.80;;;;;;;17.85;82.85;101182.63;4793341;29;20054;-62
2021/07/11 04:57:54;;;;;;;4.75;2.20;;;;;;;17.83;82.18;101193.31;4810153;29;20051;-60
2021/07/11 05:00:21;;;;;;;6.78;2.10;;;;;;;17.99;82.34;101188.66;4795047;29;20053;-60
2021/07/11 05:02:49;;;;;;;4.95;2.20;;;;;;;17.94;82.16;101181.31;4806890;29;20062;-60
2021/07/11 05:05:16;;;;;;;4.72;2.22;;;;;;;17.90;82.69;101179.59;4824297;29;20066;-60
2021/07/11 05:07:43;;;;;;;4.00;2.10;;;;;;;18.12;81.72;101181.88;4816445;29;20059;-62
2021/07/11 05:10:11;;;;;;;4.35;1.85;;;;;;;18.22;80.94;101183.38;4793374;29;20069;-60
2021/07/11 05:12:38;;;;;;;4.30;2.20;;;;;;;18.17;81.13;101178.81;4809662;29;20051;-63
2021/07/11 05:15:07;;;;;;;3.70;2.30;;;;;;;17.86;81.79;101187.84;4810058;29;20059;-61
2021/07/11 05:17:34;;;;;;;4.90;2.85;;;;;;;17.69;82.57;101182.53;4793794;29;20066;-62
2021/07/11 05:20:04;;;;;;;6.57;2.67;;;;;;;17.61;83.44;101191.81;4808880;29;20054;-61
2021/07/11 05:22:32;;;;;;;5.75;2.97;;;;;;;17.60;83.33;101181.84;4812466;29;20062;-60
2021/07/11 05:24:59;;;;;;;5.28;2.95;;;;;;;17.60;83.83;101192.16;4792902;29;20686;-61
2021/07/11 05:27:27;;;;;;;5.72;2.50;;;;;;;17.79;83.17;101184.03;4813379;29;20419;-61
2021/07/11 05:29:54;;;;;;;4.82;2.75;;;;;;;17.86;82.73;101187.84;4793563;29;20054;-61
2021/07/11 05:32:21;;;;;;;4.03;2.50;;;;;;;17.64;83.12;101193.09;4792744;29;20062;-61
2021/07/11 05:34:49;;;;;;;5.50;3.10;;;;;;;17.77;82.99;101192.75;4825686;29;20054;-62
2021/07/11 05:37:16;;;;;;;5.63;2.22;;;;;;;17.73;83.23;101194.59;4825692;29;20054;-61
2021/07/11 05:39:43;;;;;;;4.60;2.60;;;;;;;17.83;82.76;101191.34;4806369;29;20053;-60
2021/07/11 05:42:10;;;;;;;4.20;2.72;;;;;;;17.66;83.13;101199.16;4809524;29;20062;-62
2021/07/11 05:44:38;;;;;;;3.90;2.53;;;;;;;17.83;82.89;101198.88;4802652;29;20051;-60
2021/07/11 05:47:07;;;;;;;4.03;2.55;;;;;;;17.85;82.66;101194.56;4817782;29;20066;-60
2021/07/11 05:49:34;;;;;;;3.45;2.30;;;;;;;18.11;81.84;101194.19;4819580;29;20055;-59
2021/07/11 05:52:03;;;;;;;5.20;2.47;;;;;;;18.25;81.06;101194.63;4824158;29;20058;-61
2021/07/11 05:54:30;;;;;;;5.28;2.55;;;;;;;18.06;81.24;101190.84;4796908;29;20065;-60
2021/07/11 05:56:57;;;;;;;5.53;2.70;;;;;;;17.89;81.88;101189.09;4802231;29;20050;-59
2021/07/11 05:59:25;;;;;;;4.05;2.50;;;;;;;17.98;81.95;101187.84;4825015;29;20047;-60
2021/07/11 06:01:52;;;;;;;3.90;2.35;;;;;;;17.94;82.36;101180.50;4825336;29;20085;-61
2021/07/11 06:04:19;;;;;;;4.72;2.75;;;;;;;17.97;82.25;101190.97;4817719;29;20065;-60
2021/07/11 06:06:46;;;;;;;4.97;2.35;;;;;;;18.06;81.79;101183.28;4824017;29;20450;-61
2021/07/11 06:09:13;;;;;;;4.90;2.60;;;;;;;17.97;82.01;101183.41;4824681;29;20057;-60
2021/07/11 06:11:41;;;;;;;3.78;2.10;;;;;;;18.16;80.65;101191.16;4822110;29;20400;-60
2021/07/11 06:14:08;;;;;;;5.90;2.47;;;;;;;18.41;79.77;101198.28;4793030;29;20066;-61
2021/07/11 06:16:35;;;;;;;4.00;2.60;;;;;;;18.38;79.45;101203.75;4808387;29;20066;-60
2021/07/11 06:19:03;;;;;;;4.10;2.47;;;;;;;18.52;79.38;101195.81;4808155;29;20439;-60
2021/07/11 06:21:30;;;;;;;7.03;2.75;;;;;;;18.55;78.97;101192.34;4810575;29;20054;-61
2021/07/11 06:23:58;;;;;;;4.10;2.90;;;;;;;18.60;78.80;101208.81;4822938;29;20403;-61
2021/07/11 06:26:25;;;;;;;4.43;2.40;;;;;;;18.69;78.54;101192.75;4806589;29;20062;-60
2021/07/11 06:28:53;;;;;;;4.68;2.20;;;;;;;18.69;78.13;101199.09;4823213;29;20050;-60
2021/07/11 06:31:20;;;;;;;5.63;2.72;;;;;;;18.85;77.70;101201.94;4806532;29;20514;-60
2021/07/11 06:33:47;;;;;;;3.63;2.08;;;;;;;19.05;76.29;101203.69;4824405;29;20568;-61
2021/07/11 06:36:15;;;;;;;3.75;2.10;;;;;;;19.15;76.55;101199.53;4824945;29;20065;-60
2021/07/11 06:38:42;;;;;;;4.43;2.35;;;;;;;19.35;75.51;101196.53;4813029;29;20047;-61
2021/07/11 06:41:10;;;;;;;4.82;2.20;;;;;;;19.52;75.09;101184.16;4818780;29;20053;-61
2021/07/11 06:43:37;;;;;;;4.43;2.35;;;;;;;19.48;73.87;101184.09;4825053;29;20165;-61
2021/07/11 06:46:04;;;;;;;5.75;2.28;;;;;;;19.47;74.05;101185.28;4808168;29;20062;-61
2021/07/11 06:48:32;;;;;;;4.03;2.25;;;;;;;19.46;75.06;101191.19;4825277;29;20062;-61
2021/07/11 06:50:59;;;;;;;5.07;2.55;;;;;;;19.49;73.72;101190.50;4824340;29;20053;-60
2021/07/11 06:53:26;;;;;;;5.03;2.40;;;;;;;19.58;73.23;101188.31;4808392;29;20058;-64
2021/07/11 06:55:54;;;;;;;3.75;2.33;;;;;;;19.41;73.54;101186.69;4824700;29;20538;-62
2021/07/11 06:58:21;;;;;;;6.10;2.63;;;;;;;19.33;73.65;101187.72;4825009;29;20073;-62
2021/07/11 07:00:49;;;;;;;4.53;2.50;;;;;;;19.31;73.82;101178.88;4808065;29;20065;-61
2021/07/11 07:03:16;;;;;;;3.90;2.25;;;;;;;19.34;73.90;101174.53;4820632;29;20640;-61
2021/07/11 07:05:43;;;;;;;4.63;2.90;;;;;;;19.33;73.87;101179.31;4821665;29;20074;-61
2021/07/11 07:08:11;;;;;;;3.08;2.05;;;;;;;19.25;74.31;101194.22;4824083;29;20057;-60
2021/07/11 07:10:38;;;;;;;6.13;2.70;;;;;;;19.24;74.59;101191.81;4824074;29;20071;-60
2021/07/11 07:13:05;;;;;;;4.63;2.20;;;;;;;19.36;74.22;101194.53;4807574;29;20113;-60
2021/07/11 07:15:32;;;;;;;6.38;2.45;;;;;;;19.45;73.85;101197.97;4823737;29;20058;-61
2021/07/11 07:18:00;;;;;;;4.72;2.20;;;;;;;19.34;74.55;101206.06;4808595;29;20065;-62
2021/07/11 07:20:27;;;;;;;4.32;2.03;;;;;;;19.18;74.72;101207.22;4825348;29;20157;-62
2021/07/11 07:22:54;;;;;;;4.45;2.00;;;;;;;18.98;75.31;101195.94;4825116;29;20632;-61
2021/07/11 07:25:22;;;;;;;3.13;2.10;;;;;;;19.15;75.21;101197.56;4820116;29;20046;-60
2021/07/11 07:27:49;;;;;;;2.72;1.88;;;;;;;19.24;74.49;101198.22;4807396;29;20050;-63
2021/07/11 07:30:19;;;;;;;3.90;1.90;;;;;;;19.35;74.54;101193.75;4818386;29;20058;-61
2021/07/11 07:32:49;;;;;;;5.32;1.80;;;;;;;19.42;73.95;101193.91;4823657;29;20074;-62
2021/07/11 07:35:18;;;;;;;5.25;2.10;;;;;;;19.28;73.46;101195.50;4798788;29;20059;-62
2021/07/11 07:37:46;;;;;;;4.72;3.00;;;;;;;19.53;73.38;101194.16;4814890;29;20522;-62
2021/07/11 07:40:17;;;;;;;4.00;2.30;;;;;;;19.67;73.15;101194.50;4808049;29;20526;-62
2021/07/11 07:42:45;;;;;;;3.10;1.90;;;;;;;19.41;73.88;101206.25;4807754;29;20062;-61
2021/07/11 07:45:13;;;;;;;2.97;1.92;;;;;;;19.45;73.90;101211.94;4822729;29;20077;-63
2021/07/11 07:47:41;;;;;;;4.68;2.15;;;;;;;19.59;73.52;101206.69;4806921;29;20059;-61
2021/07/11 07:50:11;;;;;;;5.88;2.15;;;;;;;19.89;72.53;101202.25;4823914;29;20050;-62
2021/07/11 07:52:39;;;;;;;3.28;2.08;;;;;;;20.22;71.18;101213.00;4823912;29;20058;-61
2021/07/11 07:55:08;;;;;;;4.35;2.17;;;;;;;20.30;70.03;101203.56;4802592;29;20507;-61
2021/07/11 07:57:35;;;;;;;8.27;1.80;;;;;;;20.55;68.90;101205.72;4808129;29;20071;-61
2021/07/11 08:00:06;;;;;;;2.00;1.40;;;;;;;20.65;67.05;101207.94;4805873;29;20709;-61
2021/07/11 08:02:39;;;;;;;4.03;2.20;;;;;;;20.53;67.37;101210.06;4790543;29;20518;-61
2021/07/11 08:05:08;;;;;;;4.15;2.08;;;;;;;20.74;66.65;101205.72;4798385;29;20808;-61
2021/07/11 08:07:35;;;;;;;3.22;1.63;;;;;;;21.34;64.51;101201.25;4817194;29;20123;-46
2021/07/11 08:10:04;;;;;;;3.72;1.15;;;;;;;22.18;60.97;101202.59;4819090;29;20073;-42
2021/07/11 08:12:32;;;;;;;3.65;1.20;;;;;;;22.62;59.58;101204.81;4802539;29;20588;-44
2021/07/11 08:14:59;;;;;;;16.17;1.80;;;;;;;22.94;58.57;101197.56;4818944;29;20055;-45
2021/07/11 08:17:26;;;;;;;10.73;4.85;;;;;;;23.25;62.37;101197.06;4823532;29;20073;-43
2021/07/11 08:19:55;;;;;;;10.25;5.25;;;;;;;23.31;58.24;101195.53;4806447;29;20051;-43
2021/07/11 08:22:22;;;;;;;16.23;5.65;;;;;;;23.35;59.25;101196.38;4822810;29;20352;-42
2021/07/11 08:24:50;;;;;;;14.32;5.68;;;;;;;23.31;57.99;101187.09;4824766;29;20065;-45
2021/07/11 08:27:17;;;;;;;10.35;4.72;;;;;;;23.35;57.58;101185.94;4825275;29;20054;-44
2021/07/11 08:29:44;;;;;;;12.88;4.53;;;;;;;23.38;57.08;101187.16;4822899;29;20069;-45
2021/07/11 08:32:12;;;;;;;7.45;3.72;;;;;;;23.31;57.07;101175.84;4825246;29;20050;-45
2021/07/11 08:34:39;;;;;;;8.60;3.20;;;;;;;23.39;56.85;101174.72;4822817;29;20055;-47
2021/07/11 08:37:06;;;;;;;8.45;3.28;;;;;;;23.44;57.49;101177.19;4824672;29;20070;-44
2021/07/11 08:39:37;;;;;;;7.53;2.45;;;;;;;23.59;56.90;101173.28;4814381;29;20168;-44
2021/07/11 08:42:07;;;;;;;5.07;2.22;;;;;;;23.71;55.50;101177.78;4824839;29;20065;-47
2021/07/11 08:44:34;;;;;;;6.13;2.33;;;;;;;23.72;55.68;101183.03;4805432;29;20065;-47
2021/07/11 08:47:03;;;;;;;5.82;2.00;;;;;;;23.69;55.65;101183.81;4799233;29;20069;-45
2021/07/11 08:49:30;;;;;;;5.32;1.73;;;;;;;23.76;56.75;101175.44;4817598;29;20066;-47
2021/07/11 08:51:59;;;;;;;5.85;1.88;;;;;;;23.80;55.41;101176.25;4817841;29;20054;-46
2021/07/11 08:54:27;;;;;;;4.82;1.90;;;;;;;23.58;56.63;101168.84;4823315;29;20062;-44
2021/07/11 08:57:05;;;;;;;3.95;1.60;;;;;;;23.64;56.49;101170.09;4805805;29;20803;-48
2021/07/11 08:59:33;;;;;;;3.95;1.85;;;;;;;23.69;56.61;101164.13;4822590;29;20073;-44
2021/07/11 09:02:00;;;;;;;5.13;1.60;;;;;;;23.78;55.93;101166.59;4820675;29;20054;-45
2021/07/11 09:04:40;;;;;;;13.25;2.58;;;;;;;23.71;57.65;101169.34;4820449;29;20075;-47
2021/07/11 09:07:14;;;;;;;17.13;2.40;;;;;;;23.62;56.53;101166.88;4821390;29;20054;-46
2021/07/11 09:09:41;;;;;;;9.23;1.70;;;;;;;23.61;57.10;101179.31;4819489;29;20225;-47
2021/07/11 09:12:10;;;;;;;6.90;2.20;;;;;;;23.71;58.89;101180.59;4818789;29;20054;-45
2021/07/11 09:14:59;;;;;;;6.70;1.95;;;;;;;23.69;58.76;101181.00;4789047;29;20050;-47
2021/07/11 09:17:32;;;;;;;5.47;2.08;;;;;;;23.66;58.63;101184.56;4821620;29;20050;-43
2021/07/11 09:20:00;;;;;;;20.88;2.58;;;;;;;23.72;60.60;101185.03;4802869;29;20059;-46
2021/07/11 09:22:28;;;;;;;12.75;3.03;;;;;;;23.73;58.84;101179.00;4821638;29;20047;-42
2021/07/11 09:25:00;;;;;;;10.90;2.63;;;;;;;23.77;61.60;101176.22;4805211;29;20050;-44
2021/07/11 09:27:30;;;;;;;18.20;3.83;;;;;;;23.80;58.95;101175.44;4822231;29;20410;-44
2021/07/11 09:30:00;;;;;;;19.88;2.75;;;;;;;23.91;61.79;101181.94;4822979;29;20078;-42
2021/07/11 09:32:43;;;;;;;6.72;2.83;;;;;;;23.92;62.70;101170.28;4806890;29;20058;-45
2021/07/11 09:35:11;;;;;;;10.10;3.00;;;;;;;23.91;59.41;101165.06;4822549;29;20054;-42
2021/07/11 09:37:43;;;;;;;10.32;2.47;;;;;;;24.00;59.01;101169.19;4805957;29;20069;-50
2021/07/11 09:40:11;;;;;;;7.78;2.20;;;;;;;24.05;58.96;101165.16;4804904;29;20058;-44
2021/07/11 09:42:40;;;;;;;4.65;2.08;;;;;;;23.96;59.58;101168.31;4775195;29;20109;-44
2021/07/11 09:45:22;;;;;;;6.32;2.10;;;;;;;23.97;58.68;101175.53;4813733;29;20055;-43
2021/07/11 09:47:51;;;;;;;6.45;2.28;;;;;;;23.98;59.01;101174.34;4798847;29;20051;-46
2021/07/11 09:50:23;;;;;;;6.30;2.30;;;;;;;23.89;59.01;101173.88;4812102;29;20065;-44
2021/07/11 09:52:55;;;;;;;4.65;1.67;;;;;;;23.87;58.97;101167.06;4817339;29;20507;-48
2021/07/11 09:55:31;;;;;;;7.18;2.30;;;;;;;23.90;58.63;101167.06;4818726;29;20066;-44
2021/07/11 09:58:04;;;;;;;10.95;2.75;;;;;;;23.92;58.76;101164.66;4818357;29;20070;-53
2021/07/11 10:00:40;;;;;;;6.10;2.08;;;;;;;23.83;58.43;101167.03;4815481;29;20146;-45
2021/07/11 10:03:12;;;;;;;5.88;2.28;;;;;;;23.90;57.12;101161.44;4821577;29;20046;-45
2021/07/11 10:05:41;;;;;;;5.82;2.15;;;;;;;23.97;63.73;101163.50;4822150;29;20050;-52
2021/07/11 10:08:09;;;;;;;8.32;2.45;;;;;;;23.89;58.45;101168.25;4823615;29;20062;-47
2021/07/11 10:10:38;;;;;;;8.38;3.00;;;;;;;23.93;59.67;101157.84;4829951;29;20070;-45
2021/07/11 10:13:07;;;;;;;17.92;4.72;;;;;;;23.96;59.69;101159.06;4823417;29;20066;-50
2021/07/11 10:15:37;;;;;;;15.38;3.67;;;;;;;24.12;61.96;101148.31;4824122;29;20042;-43
2021/07/11 10:18:08;;;;;;;10.55;3.13;;;;;;;24.23;60.68;101149.19;4821708;29;20145;-46
2021/07/11 10:20:41;;;;;;;15.90;3.25;;;;;;;24.32;60.01;101141.19;4822455;29;20058;-46
2021/07/11 10:23:37;;;;;;;10.45;3.35;;;;;;;24.46;59.28;101139.22;4821966;29;20050;-45
2021/07/11 10:26:06;;;;;;;8.18;2.88;;;;;;;24.60;58.44;101146.09;4823390;29;20062;-46
2021/07/11 10:28:39;;;;;;;26.17;3.00;;;;;;;24.87;59.82;101136.13;4821776;29;20069;-51
2021/07/11 10:31:17;;;;;;;10.63;3.47;;;;;;;24.84;58.82;101136.94;4822518;29;20055;-48
2021/07/11 10:33:45;;;;;;;62.72;23.48;;;;;;;24.79;59.68;101137.34;4823919;29;20061;-47
2021/07/11 10:36:13;;;;;;;48.92;21.17;;;;;;;25.21;60.05;101146.63;4822464;29;20062;-48
2021/07/11 10:38:55;;;;;;;60.70;24.73;;;;;;;25.20;61.10;101139.38;4822549;29;20777;-47
2021/07/11 10:41:28;;;;;;;38.03;17.90;;;;;;;25.10;59.01;101136.56;4823188;29;21076;-48
2021/07/11 10:44:02;;;;;;;27.00;12.52;;;;;;;24.99;57.22;101150.66;4821526;29;20066;-50
2021/07/11 10:46:48;;;;;;;17.73;7.35;;;;;;;24.99;56.37;101144.19;4836396;29;20069;-52
2021/07/11 10:49:18;;;;;;;18.20;7.63;;;;;;;24.90;56.06;101143.78;4805428;29;20065;-47
2021/07/11 10:52:00;;;;;;;10.13;4.40;;;;;;;24.87;55.54;101139.75;4823612;29;20046;-45
2021/07/11 10:54:31;;;;;;;12.30;5.63;;;;;;;24.83;55.17;101136.13;4822505;29;21653;-47
2021/07/11 10:57:02;;;;;;;11.30;5.00;;;;;;;24.78;54.79;101135.69;4823850;29;20054;-49
2021/07/11 10:59:34;;;;;;;10.98;4.95;;;;;;;24.72;54.73;101142.94;4822601;29;20073;-51
2021/07/11 11:02:17;;;;;;;4.90;2.63;;;;;;;24.68;54.49;101139.28;4822620;29;20046;-46
2021/07/11 11:04:46;;;;;;;11.88;2.97;;;;;;;24.69;53.90;101144.53;4823131;29;20438;-47
2021/07/11 11:07:14;;;;;;;9.40;3.83;;;;;;;24.60;54.24;101148.94;4822937;29;20569;-51
2021/07/11 11:09:43;;;;;;;8.02;3.17;;;;;;;24.54;53.66;101140.06;4822269;29;20426;-47
2021/07/11 11:12:27;;;;;;;6.53;2.83;;;;;;;24.65;53.07;101140.09;4820200;29;20057;-50
2021/07/11 11:14:54;;;;;;;7.93;3.13;;;;;;;24.66;53.24;101136.03;4821980;29;20307;-48
2021/07/11 11:17:26;;;;;;;4.68;2.45;;;;;;;24.64;53.20;101136.44;4823280;29;20054;-46
2021/07/11 11:19:53;;;;;;;4.72;2.40;;;;;;;24.44;53.68;101138.00;4823120;29;20050;-46
2021/07/11 11:22:21;;;;;;;8.13;2.13;;;;;;;24.08;54.30;101133.41;4822863;29;20046;-49
2021/07/11 11:24:48;;;;;;;8.73;2.50;;;;;;;24.04;54.19;101130.56;4820566;29;20062;-46
2021/07/11 11:27:33;;;;;;;5.78;2.03;;;;;;;24.15;53.93;101134.25;4823833;29;20550;-46
2021/07/11 11:30:15;;;;;;;6.30;2.40;;;;;;;24.12;53.26;101134.25;4821459;29;20050;-46
2021/07/11 11:32:47;;;;;;;6.18;2.58;;;;;;;24.07;53.43;101131.81;4823065;29;20510;-44
2021/07/11 11:35:23;;;;;;;3.83;2.15;;;;;;;24.14;53.28;101131.84;4821403;29;20058;-46
2021/07/11 11:37:56;;;;;;;3.53;1.95;;;;;;;24.16;53.70;101119.00;4821546;29;20685;-43